This is the latest recevied weather packets stored in our database for station/object KC3JUG-3. If no packets are shown the sender has not sent any weather packets the latest 10 day(s).
| Time | Temp. | Humidity | Pressure | Rain* | Wind** | Luminosity | Snow |
|---|---|---|---|---|---|---|---|
| 1777816547 | 6.67° C | 64% | 1016.3 hPa | 0 mm | - | - | - |
| 1777816247 | 6.67° C | 63% | 1016.2 hPa | 0 mm | - | - | - |
| 1777815950 | 6.67° C | 64% | 1016.1 hPa | 0 mm | - | - | - |
| 1777813846 | 6.11° C | 64% | 1016.1 hPa | 0 mm | - | - | - |
| 1777813545 | 6.11° C | 64% | 1016 hPa | 0 mm | - | - | - |
| 1777812947 | 6.11° C | 67% | 1016.1 hPa | 0 mm | - | - | - |
| 1777812047 | 5.56° C | 69% | 1016 hPa | 0 mm | - | - | - |
| 1777809949 | 5.56° C | 69% | 1015.9 hPa | 0 mm | - | - | - |
| 1777807857 | 5° C | 71% | 1015.7 hPa | 0 mm | - | - | - |
| 1777805746 | 5° C | 72% | 1015.2 hPa | 0 mm | - | - | - |
| 1777803046 | 5° C | 74% | 1014.5 hPa | 0 mm | - | - | - |
| 1777801847 | 5° C | 74% | 1014.2 hPa | 0 mm | - | - | - |
| 1777797647 | 5° C | 77% | 1013.9 hPa | 0 mm | - | - | - |
| 1777796446 | 5° C | 77% | 1013.8 hPa | 0 mm | - | - | - |
| 1777793145 | 4.44° C | 80% | 1013 hPa | 0 mm | - | - | - |
| 1777792247 | 4.44° C | 80% | 1013.1 hPa | 0 mm | - | - | - |
| 1777791671 | 4.44° C | 80% | 1013 hPa | 0 mm | - | - | - |
| 1777791050 | 4.44° C | 79% | 1013 hPa | 0 mm | - | - | - |
| 1777788645 | 5° C | 78% | 1013.2 hPa | 0 mm | - | - | - |
| 1777787159 | 5.56° C | 77% | 1013.5 hPa | 0 mm | - | - | - |
| 1777786846 | 5.56° C | 76% | 1013.5 hPa | 0 mm | - | - | - |
| 1777783556 | 6.67° C | 74% | 1013.9 hPa | 0 mm | - | - | - |
| 1777781448 | 7.22° C | 73% | 1014.2 hPa | 0 mm | - | - | - |
| 1777779953 | 7.22° C | 69% | 1014.2 hPa | 0 mm | - | - | - |
| 1777779648 | 7.78° C | 68% | 1014.3 hPa | 0 mm | - | - | - |
* Rain latest hour (hover to see other rain measurements)
** Current wind speed in m/s (hover to see current wind gust speed)